sensor_id;sensor_type;location;lat;lon;timestamp;P1;durP1;ratioP1;P2;durP2;ratioP2
73569;SDS011;61850;54.980;73.298;2023-05-29T00:01:48;12.98;;;6.63;;
73569;SDS011;61850;54.980;73.298;2023-05-29T00:04:15;17.10;;;6.90;;
73569;SDS011;61850;54.980;73.298;2023-05-29T00:06:42;11.45;;;6.47;;
73569;SDS011;61850;54.980;73.298;2023-05-29T00:09:08;11.63;;;6.40;;
73569;SDS011;61850;54.980;73.298;2023-05-29T00:11:35;10.90;;;5.57;;
73569;SDS011;61850;54.980;73.298;2023-05-29T00:14:01;10.80;;;6.03;;
73569;SDS011;61850;54.980;73.298;2023-05-29T00:16:28;14.20;;;6.18;;
73569;SDS011;61850;54.980;73.298;2023-05-29T00:18:55;16.02;;;6.40;;
73569;SDS011;61850;54.980;73.298;2023-05-29T00:21:21;14.80;;;6.30;;
73569;SDS011;61850;54.980;73.298;2023-05-29T00:23:47;13.80;;;6.80;;
73569;SDS011;61850;54.980;73.298;2023-05-29T00:26:13;19.58;;;6.63;;
73569;SDS011;61850;54.980;73.298;2023-05-29T00:28:44;14.50;;;6.60;;
73569;SDS011;61850;54.980;73.298;2023-05-29T00:31:11;15.77;;;7.03;;
73569;SDS011;61850;54.980;73.298;2023-05-29T00:33:37;19.63;;;7.50;;
73569;SDS011;61850;54.980;73.298;2023-05-29T00:36:04;17.00;;;7.75;;
73569;SDS011;61850;54.980;73.298;2023-05-29T00:38:31;17.63;;;7.93;;
73569;SDS011;61850;54.980;73.298;2023-05-29T00:40:57;17.08;;;7.75;;
73569;SDS011;61850;54.980;73.298;2023-05-29T00:43:24;19.27;;;8.32;;
73569;SDS011;61850;54.980;73.298;2023-05-29T00:45:51;18.15;;;8.73;;
73569;SDS011;61850;54.980;73.298;2023-05-29T00:48:21;15.98;;;8.23;;
73569;SDS011;61850;54.980;73.298;2023-05-29T00:50:47;14.07;;;8.05;;
73569;SDS011;61850;54.980;73.298;2023-05-29T00:53:14;17.02;;;7.90;;
73569;SDS011;61850;54.980;73.298;2023-05-29T00:55:40;14.77;;;8.20;;
73569;SDS011;61850;54.980;73.298;2023-05-29T00:58:08;18.65;;;8.90;;
73569;SDS011;61850;54.980;73.298;2023-05-29T01:00:34;24.35;;;10.10;;
73569;SDS011;61850;54.980;73.298;2023-05-29T01:03:02;27.35;;;9.20;;
73569;SDS011;61850;54.980;73.298;2023-05-29T01:05:32;21.83;;;9.43;;
73569;SDS011;61850;54.980;73.298;2023-05-29T01:08:07;22.73;;;9.52;;
73569;SDS011;61850;54.980;73.298;2023-05-29T01:10:35;23.23;;;9.73;;
73569;SDS011;61850;54.980;73.298;2023-05-29T01:13:22;28.10;;;10.27;;
73569;SDS011;61850;54.980;73.298;2023-05-29T01:21:03;27.60;;;10.85;;
73569;SDS011;61850;54.980;73.298;2023-05-29T01:26:34;18.17;;;9.50;;
73569;SDS011;61850;54.980;73.298;2023-05-29T01:29:26;24.25;;;10.10;;
73569;SDS011;61850;54.980;73.298;2023-05-29T01:31:58;17.85;;;8.73;;
73569;SDS011;61850;54.980;73.298;2023-05-29T01:34:25;17.17;;;8.68;;
73569;SDS011;61850;54.980;73.298;2023-05-29T01:36:51;19.85;;;8.88;;
73569;SDS011;61850;54.980;73.298;2023-05-29T01:39:17;20.92;;;8.27;;
73569;SDS011;61850;54.980;73.298;2023-05-29T01:41:45;17.45;;;8.38;;
73569;SDS011;61850;54.980;73.298;2023-05-29T01:44:12;24.83;;;8.15;;
73569;SDS011;61850;54.980;73.298;2023-05-29T01:46:43;11.57;;;6.60;;
73569;SDS011;61850;54.980;73.298;2023-05-29T01:49:12;17.85;;;6.25;;
73569;SDS011;61850;54.980;73.298;2023-05-29T01:51:40;12.32;;;5.90;;
73569;SDS011;61850;54.980;73.298;2023-05-29T01:54:07;13.57;;;6.25;;
73569;SDS011;61850;54.980;73.298;2023-05-29T01:56:34;10.40;;;6.10;;
73569;SDS011;61850;54.980;73.298;2023-05-29T01:59:02;15.10;;;6.47;;
73569;SDS011;61850;54.980;73.298;2023-05-29T02:01:29;11.20;;;5.60;;
73569;SDS011;61850;54.980;73.298;2023-05-29T02:03:57;14.00;;;6.35;;
73569;SDS011;61850;54.980;73.298;2023-05-29T02:06:24;15.57;;;6.20;;
73569;SDS011;61850;54.980;73.298;2023-05-29T02:08:50;11.55;;;5.90;;
73569;SDS011;61850;54.980;73.298;2023-05-29T02:11:17;14.68;;;5.78;;
73569;SDS011;61850;54.980;73.298;2023-05-29T02:13:44;15.57;;;5.75;;
73569;SDS011;61850;54.980;73.298;2023-05-29T02:16:10;11.77;;;5.40;;
73569;SDS011;61850;54.980;73.298;2023-05-29T02:18:37;14.15;;;5.95;;
73569;SDS011;61850;54.980;73.298;2023-05-29T02:21:05;14.30;;;6.00;;
73569;SDS011;61850;54.980;73.298;2023-05-29T02:23:32;10.55;;;5.32;;
73569;SDS011;61850;54.980;73.298;2023-05-29T02:25:59;10.50;;;4.95;;
73569;SDS011;61850;54.980;73.298;2023-05-29T02:28:27;10.48;;;5.55;;
73569;SDS011;61850;54.980;73.298;2023-05-29T02:30:53;14.55;;;5.53;;
73569;SDS011;61850;54.980;73.298;2023-05-29T02:33:19;11.63;;;5.38;;
73569;SDS011;61850;54.980;73.298;2023-05-29T02:35:46;9.23;;;4.72;;
73569;SDS011;61850;54.980;73.298;2023-05-29T02:38:14;7.78;;;5.10;;
73569;SDS011;61850;54.980;73.298;2023-05-29T02:40:42;9.25;;;5.15;;
73569;SDS011;61850;54.980;73.298;2023-05-29T02:43:09;15.70;;;6.15;;
73569;SDS011;61850;54.980;73.298;2023-05-29T02:45:38;11.70;;;5.30;;
73569;SDS011;61850;54.980;73.298;2023-05-29T02:48:05;10.88;;;5.53;;
73569;SDS011;61850;54.980;73.298;2023-05-29T02:50:32;7.50;;;4.75;;
73569;SDS011;61850;54.980;73.298;2023-05-29T02:52:58;10.80;;;5.20;;
73569;SDS011;61850;54.980;73.298;2023-05-29T02:55:27;11.43;;;4.97;;
73569;SDS011;61850;54.980;73.298;2023-05-29T02:57:53;11.07;;;4.72;;
73569;SDS011;61850;54.980;73.298;2023-05-29T03:00:20;11.68;;;5.10;;
73569;SDS011;61850;54.980;73.298;2023-05-29T03:02:47;13.65;;;5.03;;
73569;SDS011;61850;54.980;73.298;2023-05-29T03:05:20;9.30;;;5.18;;
73569;SDS011;61850;54.980;73.298;2023-05-29T03:07:46;12.13;;;5.40;;
73569;SDS011;61850;54.980;73.298;2023-05-29T03:10:13;11.20;;;5.65;;
73569;SDS011;61850;54.980;73.298;2023-05-29T03:12:42;12.75;;;5.15;;
73569;SDS011;61850;54.980;73.298;2023-05-29T03:15:11;12.23;;;6.68;;
73569;SDS011;61850;54.980;73.298;2023-05-29T03:17:37;11.82;;;5.57;;
73569;SDS011;61850;54.980;73.298;2023-05-29T03:20:07;9.43;;;5.22;;
73569;SDS011;61850;54.980;73.298;2023-05-29T03:22:34;8.00;;;5.05;;
73569;SDS011;61850;54.980;73.298;2023-05-29T03:25:04;13.77;;;5.70;;
73569;SDS011;61850;54.980;73.298;2023-05-29T03:27:33;9.82;;;4.57;;
73569;SDS011;61850;54.980;73.298;2023-05-29T03:30:08;10.32;;;4.82;;
73569;SDS011;61850;54.980;73.298;2023-05-29T03:32:36;10.40;;;5.35;;
73569;SDS011;61850;54.980;73.298;2023-05-29T03:35:02;12.02;;;4.88;;
73569;SDS011;61850;54.980;73.298;2023-05-29T03:37:29;9.48;;;5.10;;
73569;SDS011;61850;54.980;73.298;2023-05-29T03:39:56;8.63;;;4.90;;
73569;SDS011;61850;54.980;73.298;2023-05-29T03:42:23;11.23;;;5.25;;
73569;SDS011;61850;54.980;73.298;2023-05-29T03:44:51;9.68;;;4.93;;
73569;SDS011;61850;54.980;73.298;2023-05-29T03:47:18;11.95;;;5.45;;
73569;SDS011;61850;54.980;73.298;2023-05-29T03:49:44;9.15;;;5.13;;
73569;SDS011;61850;54.980;73.298;2023-05-29T03:52:11;10.50;;;5.45;;
73569;SDS011;61850;54.980;73.298;2023-05-29T03:54:38;9.95;;;5.43;;
73569;SDS011;61850;54.980;73.298;2023-05-29T03:57:06;14.05;;;5.68;;
73569;SDS011;61850;54.980;73.298;2023-05-29T03:59:32;8.63;;;4.82;;
73569;SDS011;61850;54.980;73.298;2023-05-29T04:01:59;10.77;;;5.63;;
73569;SDS011;61850;54.980;73.298;2023-05-29T04:04:26;11.93;;;5.57;;
73569;SDS011;61850;54.980;73.298;2023-05-29T04:06:53;11.10;;;5.63;;
73569;SDS011;61850;54.980;73.298;2023-05-29T04:09:19;12.48;;;5.10;;
73569;SDS011;61850;54.980;73.298;2023-05-29T04:11:46;10.00;;;5.72;;
73569;SDS011;61850;54.980;73.298;2023-05-29T04:14:12;10.18;;;5.25;;
73569;SDS011;61850;54.980;73.298;2023-05-29T04:16:39;16.58;;;5.68;;
73569;SDS011;61850;54.980;73.298;2023-05-29T04:19:06;11.25;;;5.50;;
73569;SDS011;61850;54.980;73.298;2023-05-29T04:21:33;9.15;;;5.55;;
73569;SDS011;61850;54.980;73.298;2023-05-29T04:24:00;9.48;;;5.25;;
73569;SDS011;61850;54.980;73.298;2023-05-29T04:26:26;9.35;;;5.35;;
73569;SDS011;61850;54.980;73.298;2023-05-29T04:28:53;9.77;;;4.97;;
73569;SDS011;61850;54.980;73.298;2023-05-29T04:31:27;12.30;;;5.82;;
73569;SDS011;61850;54.980;73.298;2023-05-29T04:33:54;11.20;;;5.13;;
73569;SDS011;61850;54.980;73.298;2023-05-29T04:36:22;14.13;;;4.90;;
73569;SDS011;61850;54.980;73.298;2023-05-29T04:39:04;8.57;;;5.32;;
73569;SDS011;61850;54.980;73.298;2023-05-29T04:41:31;10.25;;;5.07;;
73569;SDS011;61850;54.980;73.298;2023-05-29T04:43:58;12.68;;;5.82;;
73569;SDS011;61850;54.980;73.298;2023-05-29T04:46:30;11.68;;;5.70;;
73569;SDS011;61850;54.980;73.298;2023-05-29T04:48:56;14.90;;;6.03;;
73569;SDS011;61850;54.980;73.298;2023-05-29T04:51:23;11.93;;;5.55;;
73569;SDS011;61850;54.980;73.298;2023-05-29T04:53:50;10.68;;;5.60;;
73569;SDS011;61850;54.980;73.298;2023-05-29T04:56:17;13.73;;;6.28;;
73569;SDS011;61850;54.980;73.298;2023-05-29T04:58:46;18.50;;;7.05;;
73569;SDS011;61850;54.980;73.298;2023-05-29T05:01:12;13.48;;;5.93;;
73569;SDS011;61850;54.980;73.298;2023-05-29T05:03:43;15.27;;;6.07;;
73569;SDS011;61850;54.980;73.298;2023-05-29T05:06:09;19.13;;;6.60;;
73569;SDS011;61850;54.980;73.298;2023-05-29T05:08:38;22.70;;;7.15;;
73569;SDS011;61850;54.980;73.298;2023-05-29T05:11:07;17.50;;;7.20;;
73569;SDS011;61850;54.980;73.298;2023-05-29T05:13:33;16.35;;;7.00;;
73569;SDS011;61850;54.980;73.298;2023-05-29T05:16:00;23.85;;;7.97;;
73569;SDS011;61850;54.980;73.298;2023-05-29T05:18:28;23.08;;;7.57;;
73569;SDS011;61850;54.980;73.298;2023-05-29T05:21:00;29.48;;;9.02;;
73569;SDS011;61850;54.980;73.298;2023-05-29T05:23:29;26.95;;;8.75;;
73569;SDS011;61850;54.980;73.298;2023-05-29T05:25:58;24.23;;;9.00;;
73569;SDS011;61850;54.980;73.298;2023-05-29T05:28:25;23.52;;;8.85;;
73569;SDS011;61850;54.980;73.298;2023-05-29T05:30:52;24.77;;;9.00;;
73569;SDS011;61850;54.980;73.298;2023-05-29T05:33:18;26.90;;;8.10;;
73569;SDS011;61850;54.980;73.298;2023-05-29T05:35:45;19.77;;;7.47;;
73569;SDS011;61850;54.980;73.298;2023-05-29T05:38:11;26.65;;;8.65;;
73569;SDS011;61850;54.980;73.298;2023-05-29T05:40:38;23.50;;;9.95;;
73569;SDS011;61850;54.980;73.298;2023-05-29T05:43:17;26.08;;;8.63;;
73569;SDS011;61850;54.980;73.298;2023-05-29T05:45:57;20.55;;;8.60;;
73569;SDS011;61850;54.980;73.298;2023-05-29T05:48:25;31.50;;;9.57;;
73569;SDS011;61850;54.980;73.298;2023-05-29T05:50:52;27.25;;;8.88;;
73569;SDS011;61850;54.980;73.298;2023-05-29T05:53:18;26.02;;;9.25;;
73569;SDS011;61850;54.980;73.298;2023-05-29T05:55:46;23.88;;;9.13;;
73569;SDS011;61850;54.980;73.298;2023-05-29T05:58:13;29.83;;;9.40;;
73569;SDS011;61850;54.980;73.298;2023-05-29T06:00:41;16.63;;;7.82;;
73569;SDS011;61850;54.980;73.298;2023-05-29T06:03:09;21.33;;;9.00;;
73569;SDS011;61850;54.980;73.298;2023-05-29T06:05:59;19.30;;;8.93;;
73569;SDS011;61850;54.980;73.298;2023-05-29T06:08:25;19.13;;;9.13;;
73569;SDS011;61850;54.980;73.298;2023-05-29T06:10:52;23.88;;;9.13;;
73569;SDS011;61850;54.980;73.298;2023-05-29T06:13:19;24.88;;;8.88;;
73569;SDS011;61850;54.980;73.298;2023-05-29T06:15:51;24.45;;;10.57;;
73569;SDS011;61850;54.980;73.298;2023-05-29T06:18:18;34.92;;;10.43;;
73569;SDS011;61850;54.980;73.298;2023-05-29T06:20:44;32.03;;;9.98;;
73569;SDS011;61850;54.980;73.298;2023-05-29T06:23:12;28.98;;;9.82;;
73569;SDS011;61850;54.980;73.298;2023-05-29T06:25:38;28.10;;;9.60;;
73569;SDS011;61850;54.980;73.298;2023-05-29T06:28:05;22.60;;;9.50;;
73569;SDS011;61850;54.980;73.298;2023-05-29T06:30:32;26.13;;;9.45;;
73569;SDS011;61850;54.980;73.298;2023-05-29T06:32:58;27.90;;;9.32;;
73569;SDS011;61850;54.980;73.298;2023-05-29T06:35:31;25.20;;;9.65;;
73569;SDS011;61850;54.980;73.298;2023-05-29T06:37:57;19.08;;;8.10;;
73569;SDS011;61850;54.980;73.298;2023-05-29T06:40:25;15.68;;;7.93;;
73569;SDS011;61850;54.980;73.298;2023-05-29T06:42:51;16.63;;;7.43;;
73569;SDS011;61850;54.980;73.298;2023-05-29T06:45:34;15.50;;;7.18;;
73569;SDS011;61850;54.980;73.298;2023-05-29T06:48:00;20.23;;;7.50;;
73569;SDS011;61850;54.980;73.298;2023-05-29T06:50:27;21.50;;;7.53;;
73569;SDS011;61850;54.980;73.298;2023-05-29T06:52:54;21.67;;;7.82;;
73569;SDS011;61850;54.980;73.298;2023-05-29T06:55:26;29.75;;;8.45;;
73569;SDS011;61850;54.980;73.298;2023-05-29T06:57:57;23.27;;;8.30;;
73569;SDS011;61850;54.980;73.298;2023-05-29T07:00:25;17.13;;;7.45;;
73569;SDS011;61850;54.980;73.298;2023-05-29T07:03:30;18.25;;;7.80;;
73569;SDS011;61850;54.980;73.298;2023-05-29T07:05:56;14.27;;;6.95;;
73569;SDS011;61850;54.980;73.298;2023-05-29T07:08:23;14.38;;;7.07;;
73569;SDS011;61850;54.980;73.298;2023-05-29T07:10:51;19.20;;;6.90;;
73569;SDS011;61850;54.980;73.298;2023-05-29T07:13:19;12.13;;;6.63;;
73569;SDS011;61850;54.980;73.298;2023-05-29T07:15:46;11.30;;;6.90;;
73569;SDS011;61850;54.980;73.298;2023-05-29T07:18:14;15.85;;;7.30;;
73569;SDS011;61850;54.980;73.298;2023-05-29T07:20:41;16.77;;;7.70;;
73569;SDS011;61850;54.980;73.298;2023-05-29T07:23:12;19.48;;;8.13;;
73569;SDS011;61850;54.980;73.298;2023-05-29T07:25:38;20.60;;;8.35;;
73569;SDS011;61850;54.980;73.298;2023-05-29T07:28:04;21.67;;;8.38;;
73569;SDS011;61850;54.980;73.298;2023-05-29T07:30:31;25.45;;;8.80;;
73569;SDS011;61850;54.980;73.298;2023-05-29T07:32:57;24.77;;;8.75;;
73569;SDS011;61850;54.980;73.298;2023-05-29T07:35:24;19.17;;;7.45;;
73569;SDS011;61850;54.980;73.298;2023-05-29T07:37:49;20.15;;;7.72;;
73569;SDS011;61850;54.980;73.298;2023-05-29T07:40:17;21.13;;;7.70;;
73569;SDS011;61850;54.980;73.298;2023-05-29T07:43:19;22.05;;;7.57;;
73569;SDS011;61850;54.980;73.298;2023-05-29T07:45:55;16.40;;;7.45;;
73569;SDS011;61850;54.980;73.298;2023-05-29T07:48:22;22.02;;;7.75;;
73569;SDS011;61850;54.980;73.298;2023-05-29T07:50:50;13.63;;;6.80;;
73569;SDS011;61850;54.980;73.298;2023-05-29T07:53:17;13.15;;;6.88;;
73569;SDS011;61850;54.980;73.298;2023-05-29T07:55:46;18.02;;;6.97;;
73569;SDS011;61850;54.980;73.298;2023-05-29T07:58:12;17.90;;;6.60;;
73569;SDS011;61850;54.980;73.298;2023-05-29T08:00:39;15.90;;;6.95;;
73569;SDS011;61850;54.980;73.298;2023-05-29T08:03:06;18.55;;;7.10;;
73569;SDS011;61850;54.980;73.298;2023-05-29T08:05:53;15.88;;;6.97;;
73569;SDS011;61850;54.980;73.298;2023-05-29T08:08:21;10.80;;;6.53;;
73569;SDS011;61850;54.980;73.298;2023-05-29T08:10:48;16.80;;;6.60;;
73569;SDS011;61850;54.980;73.298;2023-05-29T08:13:14;11.68;;;6.45;;
73569;SDS011;61850;54.980;73.298;2023-05-29T08:15:43;12.45;;;5.78;;
73569;SDS011;61850;54.980;73.298;2023-05-29T08:18:09;15.00;;;5.80;;
73569;SDS011;61850;54.980;73.298;2023-05-29T08:20:36;11.32;;;5.80;;
73569;SDS011;61850;54.980;73.298;2023-05-29T08:23:02;11.27;;;5.90;;
73569;SDS011;61850;54.980;73.298;2023-05-29T08:25:28;13.73;;;6.47;;
73569;SDS011;61850;54.980;73.298;2023-05-29T08:27:55;9.32;;;6.07;;
73569;SDS011;61850;54.980;73.298;2023-05-29T08:30:21;13.18;;;6.45;;
73569;SDS011;61850;54.980;73.298;2023-05-29T08:32:48;15.73;;;6.25;;
73569;SDS011;61850;54.980;73.298;2023-05-29T08:35:15;16.10;;;6.47;;
73569;SDS011;61850;54.980;73.298;2023-05-29T08:37:42;10.48;;;6.35;;
73569;SDS011;61850;54.980;73.298;2023-05-29T08:40:08;13.10;;;6.10;;
73569;SDS011;61850;54.980;73.298;2023-05-29T08:42:50;12.35;;;6.50;;
73569;SDS011;61850;54.980;73.298;2023-05-29T08:45:29;16.45;;;6.88;;
73569;SDS011;61850;54.980;73.298;2023-05-29T08:48:00;18.55;;;7.38;;
73569;SDS011;61850;54.980;73.298;2023-05-29T08:50:28;19.60;;;7.03;;
73569;SDS011;61850;54.980;73.298;2023-05-29T08:52:54;18.48;;;7.32;;
73569;SDS011;61850;54.980;73.298;2023-05-29T08:55:22;23.20;;;7.20;;
73569;SDS011;61850;54.980;73.298;2023-05-29T08:57:49;13.00;;;7.07;;
73569;SDS011;61850;54.980;73.298;2023-05-29T09:00:16;21.38;;;6.50;;
73569;SDS011;61850;54.980;73.298;2023-05-29T09:02:46;20.05;;;6.95;;
73569;SDS011;61850;54.980;73.298;2023-05-29T09:05:12;22.75;;;7.50;;
73569;SDS011;61850;54.980;73.298;2023-05-29T09:07:38;24.92;;;7.60;;
73569;SDS011;61850;54.980;73.298;2023-05-29T09:10:05;25.48;;;7.35;;
73569;SDS011;61850;54.980;73.298;2023-05-29T09:12:33;25.20;;;7.45;;
73569;SDS011;61850;54.980;73.298;2023-05-29T09:15:00;22.52;;;7.82;;
73569;SDS011;61850;54.980;73.298;2023-05-29T09:17:33;20.70;;;7.15;;
73569;SDS011;61850;54.980;73.298;2023-05-29T09:19:59;20.30;;;6.93;;
73569;SDS011;61850;54.980;73.298;2023-05-29T09:22:26;25.42;;;7.82;;
73569;SDS011;61850;54.980;73.298;2023-05-29T09:25:04;18.42;;;6.88;;
73569;SDS011;61850;54.980;73.298;2023-05-29T09:27:50;21.83;;;7.43;;
73569;SDS011;61850;54.980;73.298;2023-05-29T09:30:30;14.40;;;6.85;;
73569;SDS011;61850;54.980;73.298;2023-05-29T09:32:59;19.27;;;7.60;;
73569;SDS011;61850;54.980;73.298;2023-05-29T09:35:33;16.00;;;6.50;;
73569;SDS011;61850;54.980;73.298;2023-05-29T09:38:04;14.50;;;6.90;;
73569;SDS011;61850;54.980;73.298;2023-05-29T09:40:31;14.50;;;6.78;;
73569;SDS011;61850;54.980;73.298;2023-05-29T09:43:02;12.65;;;6.60;;
73569;SDS011;61850;54.980;73.298;2023-05-29T09:45:42;18.52;;;6.47;;
73569;SDS011;61850;54.980;73.298;2023-05-29T09:48:13;12.95;;;6.20;;
73569;SDS011;61850;54.980;73.298;2023-05-29T09:50:41;18.98;;;7.05;;
73569;SDS011;61850;54.980;73.298;2023-05-29T09:53:18;17.35;;;7.78;;
73569;SDS011;61850;54.980;73.298;2023-05-29T09:55:55;20.07;;;7.40;;
73569;SDS011;61850;54.980;73.298;2023-05-29T09:58:25;19.10;;;7.13;;
73569;SDS011;61850;54.980;73.298;2023-05-29T10:00:52;17.90;;;6.78;;
73569;SDS011;61850;54.980;73.298;2023-05-29T10:03:19;15.57;;;7.53;;
73569;SDS011;61850;54.980;73.298;2023-05-29T10:05:47;13.95;;;7.00;;
73569;SDS011;61850;54.980;73.298;2023-05-29T10:08:19;18.13;;;7.57;;
73569;SDS011;61850;54.980;73.298;2023-05-29T10:10:48;15.25;;;7.32;;
73569;SDS011;61850;54.980;73.298;2023-05-29T10:13:24;14.27;;;6.85;;
73569;SDS011;61850;54.980;73.298;2023-05-29T10:15:57;12.65;;;6.70;;
73569;SDS011;61850;54.980;73.298;2023-05-29T10:18:26;11.32;;;7.13;;
73569;SDS011;61850;54.980;73.298;2023-05-29T10:20:57;12.35;;;6.55;;
73569;SDS011;61850;54.980;73.298;2023-05-29T10:23:25;14.23;;;6.75;;
73569;SDS011;61850;54.980;73.298;2023-05-29T10:25:58;13.07;;;6.95;;
73569;SDS011;61850;54.980;73.298;2023-05-29T10:28:33;10.63;;;6.40;;
73569;SDS011;61850;54.980;73.298;2023-05-29T10:31:04;14.68;;;6.85;;
73569;SDS011;61850;54.980;73.298;2023-05-29T10:36:38;12.55;;;6.45;;
73569;SDS011;61850;54.980;73.298;2023-05-29T10:39:11;12.13;;;6.13;;
73569;SDS011;61850;54.980;73.298;2023-05-29T10:41:38;17.88;;;6.80;;
73569;SDS011;61850;54.980;73.298;2023-05-29T10:49:26;11.13;;;6.75;;
73569;SDS011;61850;54.980;73.298;2023-05-29T10:51:52;15.60;;;6.88;;
73569;SDS011;61850;54.980;73.298;2023-05-29T10:54:24;14.55;;;6.90;;
73569;SDS011;61850;54.980;73.298;2023-05-29T10:56:52;11.30;;;6.95;;
73569;SDS011;61850;54.980;73.298;2023-05-29T10:59:23;12.05;;;6.60;;
73569;SDS011;61850;54.980;73.298;2023-05-29T11:01:53;12.90;;;7.00;;
73569;SDS011;61850;54.980;73.298;2023-05-29T11:06:46;14.32;;;7.40;;
73569;SDS011;61850;54.980;73.298;2023-05-29T11:09:33;9.95;;;7.22;;
73569;SDS011;61850;54.980;73.298;2023-05-29T11:17:34;11.63;;;7.20;;
73569;SDS011;61850;54.980;73.298;2023-05-29T11:20:27;18.60;;;7.32;;
73569;SDS011;61850;54.980;73.298;2023-05-29T11:23:05;15.60;;;7.35;;
73569;SDS011;61850;54.980;73.298;2023-05-29T11:25:38;16.00;;;7.03;;
73569;SDS011;61850;54.980;73.298;2023-05-29T11:28:04;12.15;;;6.85;;
73569;SDS011;61850;54.980;73.298;2023-05-29T11:30:43;11.40;;;6.80;;
73569;SDS011;61850;54.980;73.298;2023-05-29T11:33:31;11.85;;;6.95;;
73569;SDS011;61850;54.980;73.298;2023-05-29T11:36:01;12.73;;;7.25;;
73569;SDS011;61850;54.980;73.298;2023-05-29T11:38:28;13.18;;;7.38;;
73569;SDS011;61850;54.980;73.298;2023-05-29T11:40:55;11.63;;;6.72;;
73569;SDS011;61850;54.980;73.298;2023-05-29T11:43:24;9.25;;;6.45;;
73569;SDS011;61850;54.980;73.298;2023-05-29T11:45:57;10.45;;;6.65;;
73569;SDS011;61850;54.980;73.298;2023-05-29T11:48:23;14.60;;;6.75;;
73569;SDS011;61850;54.980;73.298;2023-05-29T11:50:49;18.20;;;7.85;;
73569;SDS011;61850;54.980;73.298;2023-05-29T11:53:16;13.32;;;7.00;;
73569;SDS011;61850;54.980;73.298;2023-05-29T11:55:43;17.40;;;6.90;;
73569;SDS011;61850;54.980;73.298;2023-05-29T11:58:09;12.88;;;6.97;;
73569;SDS011;61850;54.980;73.298;2023-05-29T12:00:38;17.30;;;6.72;;
73569;SDS011;61850;54.980;73.298;2023-05-29T12:03:05;17.33;;;7.47;;
73569;SDS011;61850;54.980;73.298;2023-05-29T12:05:46;15.82;;;7.25;;
73569;SDS011;61850;54.980;73.298;2023-05-29T12:08:21;19.15;;;7.30;;
73569;SDS011;61850;54.980;73.298;2023-05-29T12:10:50;19.67;;;7.45;;
73569;SDS011;61850;54.980;73.298;2023-05-29T12:13:23;20.73;;;7.18;;
73569;SDS011;61850;54.980;73.298;2023-05-29T12:15:52;13.48;;;7.32;;
73569;SDS011;61850;54.980;73.298;2023-05-29T12:18:25;14.80;;;7.15;;
73569;SDS011;61850;54.980;73.298;2023-05-29T12:20:58;18.67;;;7.22;;
73569;SDS011;61850;54.980;73.298;2023-05-29T12:23:27;13.32;;;7.22;;
73569;SDS011;61850;54.980;73.298;2023-05-29T12:25:55;13.07;;;7.22;;
73569;SDS011;61850;54.980;73.298;2023-05-29T12:28:22;11.88;;;7.25;;
73569;SDS011;61850;54.980;73.298;2023-05-29T12:30:48;16.20;;;7.40;;
73569;SDS011;61850;54.980;73.298;2023-05-29T12:33:28;16.30;;;7.50;;
73569;SDS011;61850;54.980;73.298;2023-05-29T12:36:04;13.10;;;7.50;;
73569;SDS011;61850;54.980;73.298;2023-05-29T12:38:32;21.65;;;7.80;;
73569;SDS011;61850;54.980;73.298;2023-05-29T12:41:01;15.60;;;7.18;;
73569;SDS011;61850;54.980;73.298;2023-05-29T12:43:28;18.30;;;7.82;;
73569;SDS011;61850;54.980;73.298;2023-05-29T12:45:55;23.05;;;8.23;;
73569;SDS011;61850;54.980;73.298;2023-05-29T12:48:26;19.13;;;8.57;;
73569;SDS011;61850;54.980;73.298;2023-05-29T12:50:59;17.33;;;8.77;;
73569;SDS011;61850;54.980;73.298;2023-05-29T12:53:33;18.05;;;8.35;;
73569;SDS011;61850;54.980;73.298;2023-05-29T12:56:00;13.00;;;8.18;;
73569;SDS011;61850;54.980;73.298;2023-05-29T12:58:27;13.65;;;8.23;;
73569;SDS011;61850;54.980;73.298;2023-05-29T13:00:53;18.20;;;8.68;;
73569;SDS011;61850;54.980;73.298;2023-05-29T13:03:23;13.45;;;8.25;;
73569;SDS011;61850;54.980;73.298;2023-05-29T13:05:49;14.90;;;8.13;;
73569;SDS011;61850;54.980;73.298;2023-05-29T13:08:16;17.70;;;8.13;;
73569;SDS011;61850;54.980;73.298;2023-05-29T13:10:44;16.27;;;8.25;;
73569;SDS011;61850;54.980;73.298;2023-05-29T13:13:11;19.65;;;8.15;;
73569;SDS011;61850;54.980;73.298;2023-05-29T13:15:38;22.35;;;8.95;;
73569;SDS011;61850;54.980;73.298;2023-05-29T13:18:06;16.33;;;8.57;;
73569;SDS011;61850;54.980;73.298;2023-05-29T13:20:32;14.98;;;8.85;;
73569;SDS011;61850;54.980;73.298;2023-05-29T13:22:59;16.50;;;8.80;;
73569;SDS011;61850;54.980;73.298;2023-05-29T13:25:25;12.38;;;7.90;;
73569;SDS011;61850;54.980;73.298;2023-05-29T13:27:52;15.18;;;8.38;;
73569;SDS011;61850;54.980;73.298;2023-05-29T13:30:18;21.75;;;9.10;;
73569;SDS011;61850;54.980;73.298;2023-05-29T13:32:46;25.27;;;8.80;;
73569;SDS011;61850;54.980;73.298;2023-05-29T13:35:13;22.27;;;9.45;;
73569;SDS011;61850;54.980;73.298;2023-05-29T13:37:39;18.95;;;9.23;;
73569;SDS011;61850;54.980;73.298;2023-05-29T13:40:06;22.35;;;9.95;;
73569;SDS011;61850;54.980;73.298;2023-05-29T13:42:35;26.00;;;10.80;;
73569;SDS011;61850;54.980;73.298;2023-05-29T13:45:01;28.50;;;11.27;;
73569;SDS011;61850;54.980;73.298;2023-05-29T13:47:28;29.20;;;11.45;;
73569;SDS011;61850;54.980;73.298;2023-05-29T13:49:57;29.30;;;10.88;;
73569;SDS011;61850;54.980;73.298;2023-05-29T13:52:25;37.08;;;11.68;;
73569;SDS011;61850;54.980;73.298;2023-05-29T13:54:52;31.35;;;12.57;;
73569;SDS011;61850;54.980;73.298;2023-05-29T13:57:18;29.17;;;11.13;;
73569;SDS011;61850;54.980;73.298;2023-05-29T13:59:45;30.02;;;10.70;;
73569;SDS011;61850;54.980;73.298;2023-05-29T14:02:11;28.55;;;10.98;;
73569;SDS011;61850;54.980;73.298;2023-05-29T14:04:37;27.88;;;11.20;;
73569;SDS011;61850;54.980;73.298;2023-05-29T14:07:04;27.40;;;12.60;;
73569;SDS011;61850;54.980;73.298;2023-05-29T14:09:30;26.25;;;12.95;;
73569;SDS011;61850;54.980;73.298;2023-05-29T14:11:58;26.65;;;12.30;;
73569;SDS011;61850;54.980;73.298;2023-05-29T14:14:25;21.45;;;12.23;;
73569;SDS011;61850;54.980;73.298;2023-05-29T14:16:52;21.02;;;11.60;;
73569;SDS011;61850;54.980;73.298;2023-05-29T14:19:21;21.60;;;11.40;;
73569;SDS011;61850;54.980;73.298;2023-05-29T14:21:49;20.30;;;11.20;;
73569;SDS011;61850;54.980;73.298;2023-05-29T14:24:16;20.33;;;10.60;;
73569;SDS011;61850;54.980;73.298;2023-05-29T14:26:43;19.80;;;10.50;;
73569;SDS011;61850;54.980;73.298;2023-05-29T14:29:13;27.25;;;10.90;;
73569;SDS011;61850;54.980;73.298;2023-05-29T14:31:40;22.77;;;12.02;;
73569;SDS011;61850;54.980;73.298;2023-05-29T14:34:06;23.83;;;13.05;;
73569;SDS011;61850;54.980;73.298;2023-05-29T14:36:33;23.45;;;12.93;;
73569;SDS011;61850;54.980;73.298;2023-05-29T14:38:59;28.02;;;13.70;;
73569;SDS011;61850;54.980;73.298;2023-05-29T14:41:28;17.88;;;12.55;;
73569;SDS011;61850;54.980;73.298;2023-05-29T14:43:54;20.13;;;12.10;;
73569;SDS011;61850;54.980;73.298;2023-05-29T14:46:27;20.83;;;11.38;;
73569;SDS011;61850;54.980;73.298;2023-05-29T14:48:57;18.08;;;11.18;;
73569;SDS011;61850;54.980;73.298;2023-05-29T14:51:24;20.38;;;11.95;;
73569;SDS011;61850;54.980;73.298;2023-05-29T14:53:51;21.55;;;11.13;;
73569;SDS011;61850;54.980;73.298;2023-05-29T14:56:22;16.95;;;10.68;;